Flight Briefing for CPX363

Departure Arrival
Seattle-Tacoma International Airport (KSEA)
Click to view FAA NOTAMS
Fort Worth Alliance Airport (KAFW)
Click to view FAA NOTAMS
Departure Time Arrival Time
N/A N/A
Aircraft Distance
B767-300BDSF 1428nm
Departure METAR Arrival METAR
KSEA 192316Z 20011KT 10SM -RA OVC013 06/03 A3001 RMK AO2 P0000 T00560033 KAFW 192325Z 04008KT 7SM -DZ BKN005 OVC012 03/02 A2992 RMK AO2 RAE11DZB23 P0000 T00330017
Suggested Route
SUMMA1 SUMMA J54 BKE J54 BOI J15 JNC ALS PNH MDANO WESAT2


View recent IFR Routes data
Notes



Charts and Procedures

Charts for KSEA
No chart available
Charts for KAFW
No chart available

Ventusky Weather




{"cat":null,"equip":null,"transponder":null,"pbn":"PBN\/","maxpax":null,"oew":"0.0","mzfw":"0.0","mtow":"0.0","mlw":"0.0","maxfuel":"0.0"} DEVELOPMENTAL TEST USE ONLY